sensor_id;sensor_type;location;lat;lon;timestamp;temperature;humidity
45383;DHT22;42455;51.660;5.824;2023-12-04T00:04:57;3.1;95.5
45383;DHT22;42455;51.660;5.824;2023-12-04T00:10:04;3.1;95.5
45383;DHT22;42455;51.660;5.824;2023-12-04T00:15:10;3.1;95.5
45383;DHT22;42455;51.660;5.824;2023-12-04T00:20:16;3.1;95.5
45383;DHT22;42455;51.660;5.824;2023-12-04T00:25:22;3.1;95.5
45383;DHT22;42455;51.660;5.824;2023-12-04T00:30:28;3.1;95.5
45383;DHT22;42455;51.660;5.824;2023-12-04T00:35:34;3.1;95.5
45383;DHT22;42455;51.660;5.824;2023-12-04T00:40:40;3.1;95.5
45383;DHT22;42455;51.660;5.824;2023-12-04T00:45:47;3.1;95.5
45383;DHT22;42455;51.660;5.824;2023-12-04T00:50:54;3.1;95.5
45383;DHT22;42455;51.660;5.824;2023-12-04T00:56:00;3.1;95.5
45383;DHT22;42455;51.660;5.824;2023-12-04T01:01:04;3.1;95.5
45383;DHT22;42455;51.660;5.824;2023-12-04T01:06:19;3.1;95.5
45383;DHT22;42455;51.660;5.824;2023-12-04T01:11:17;3.1;95.5
45383;DHT22;42455;51.660;5.824;2023-12-04T01:16:23;3.1;95.5
45383;DHT22;42455;51.660;5.824;2023-12-04T01:21:29;3.1;95.5
45383;DHT22;42455;51.660;5.824;2023-12-04T01:26:35;3.2;95.5
45383;DHT22;42455;51.660;5.824;2023-12-04T01:31:42;3.2;95.5
45383;DHT22;42455;51.660;5.824;2023-12-04T01:36:48;3.2;95.5
45383;DHT22;42455;51.660;5.824;2023-12-04T01:41:54;3.2;95.5
45383;DHT22;42455;51.660;5.824;2023-12-04T01:47:00;3.2;95.5
45383;DHT22;42455;51.660;5.824;2023-12-04T01:52:06;3.2;95.5
45383;DHT22;42455;51.660;5.824;2023-12-04T01:57:13;3.2;95.5
45383;DHT22;42455;51.660;5.824;2023-12-04T02:02:19;3.2;95.5
45383;DHT22;42455;51.660;5.824;2023-12-04T02:07:25;3.2;95.5
45383;DHT22;42455;51.660;5.824;2023-12-04T02:12:31;3.2;95.5
45383;DHT22;42455;51.660;5.824;2023-12-04T02:17:39;3.2;95.5
45383;DHT22;42455;51.660;5.824;2023-12-04T02:22:44;3.2;95.5
45383;DHT22;42455;51.660;5.824;2023-12-04T02:27:59;3.2;95.5
45383;DHT22;42455;51.660;5.824;2023-12-04T02:33:05;3.2;95.5
45383;DHT22;42455;51.660;5.824;2023-12-04T02:38:03;3.2;95.5
45383;DHT22;42455;51.660;5.824;2023-12-04T02:43:08;3.2;95.5
45383;DHT22;42455;51.660;5.824;2023-12-04T02:48:15;3.2;95.5
45383;DHT22;42455;51.660;5.824;2023-12-04T02:53:21;3.2;95.5
45383;DHT22;42455;51.660;5.824;2023-12-04T02:58:27;3.3;95.5
45383;DHT22;42455;51.660;5.824;2023-12-04T03:03:33;3.3;95.5
45383;DHT22;42455;51.660;5.824;2023-12-04T03:08:40;3.3;95.5
45383;DHT22;42455;51.660;5.824;2023-12-04T03:13:46;3.3;95.0
45383;DHT22;42455;51.660;5.824;2023-12-04T03:18:52;3.3;95.0
45383;DHT22;42455;51.660;5.824;2023-12-04T03:23:58;3.3;95.0
45383;DHT22;42455;51.660;5.824;2023-12-04T03:29:04;3.3;95.0
45383;DHT22;42455;51.660;5.824;2023-12-04T03:34:11;3.2;95.0
45383;DHT22;42455;51.660;5.824;2023-12-04T03:39:17;3.3;95.0
45383;DHT22;42455;51.660;5.824;2023-12-04T03:44:23;3.3;95.0
45383;DHT22;42455;51.660;5.824;2023-12-04T03:49:29;3.2;95.0
45383;DHT22;42455;51.660;5.824;2023-12-04T03:54:35;0.0;0.0
45383;DHT22;42455;51.660;5.824;2023-12-04T03:59:43;3.2;95.0
45383;DHT22;42455;51.660;5.824;2023-12-04T04:04:48;3.2;95.0
45383;DHT22;42455;51.660;5.824;2023-12-04T04:09:54;3.2;95.0
45383;DHT22;42455;51.660;5.824;2023-12-04T04:15:00;3.2;95.0
45383;DHT22;42455;51.660;5.824;2023-12-04T04:20:07;3.2;95.0
45383;DHT22;42455;51.660;5.824;2023-12-04T04:25:13;3.2;95.0
45383;DHT22;42455;51.660;5.824;2023-12-04T04:30:19;3.2;95.0
45383;DHT22;42455;51.660;5.824;2023-12-04T04:35:25;3.2;95.0
45383;DHT22;42455;51.660;5.824;2023-12-04T04:40:31;3.2;95.0
45383;DHT22;42455;51.660;5.824;2023-12-04T04:45:37;3.2;95.0
45383;DHT22;42455;51.660;5.824;2023-12-04T04:50:44;3.2;95.0
45383;DHT22;42455;51.660;5.824;2023-12-04T04:55:50;3.2;95.0
45383;DHT22;42455;51.660;5.824;2023-12-04T05:00:56;3.2;95.0
45383;DHT22;42455;51.660;5.824;2023-12-04T05:06:02;3.2;95.0
45383;DHT22;42455;51.660;5.824;2023-12-04T05:11:09;3.2;94.5
45383;DHT22;42455;51.660;5.824;2023-12-04T05:16:15;3.2;94.5
45383;DHT22;42455;51.660;5.824;2023-12-04T05:21:21;3.2;94.5
45383;DHT22;42455;51.660;5.824;2023-12-04T05:26:27;3.2;94.5
45383;DHT22;42455;51.660;5.824;2023-12-04T05:31:33;3.2;94.5
45383;DHT22;42455;51.660;5.824;2023-12-04T05:36:40;3.2;94.5
45383;DHT22;42455;51.660;5.824;2023-12-04T05:41:46;3.2;94.5
45383;DHT22;42455;51.660;5.824;2023-12-04T05:46:52;3.2;94.5
45383;DHT22;42455;51.660;5.824;2023-12-04T05:51:58;3.2;94.5
45383;DHT22;42455;51.660;5.824;2023-12-04T05:57:04;3.2;94.5
45383;DHT22;42455;51.660;5.824;2023-12-04T06:02:11;3.2;94.5
45383;DHT22;42455;51.660;5.824;2023-12-04T06:07:17;3.2;94.5
45383;DHT22;42455;51.660;5.824;2023-12-04T06:12:23;3.2;94.0
45383;DHT22;42455;51.660;5.824;2023-12-04T06:17:29;3.2;94.0
45383;DHT22;42455;51.660;5.824;2023-12-04T06:22:35;3.2;94.0
45383;DHT22;42455;51.660;5.824;2023-12-04T06:27:42;3.3;94.0
45383;DHT22;42455;51.660;5.824;2023-12-04T06:32:47;3.3;94.0
45383;DHT22;42455;51.660;5.824;2023-12-04T06:37:54;3.3;94.0
45383;DHT22;42455;51.660;5.824;2023-12-04T06:42:59;3.3;94.0
45383;DHT22;42455;51.660;5.824;2023-12-04T06:48:06;3.3;94.0
45383;DHT22;42455;51.660;5.824;2023-12-04T06:53:12;3.3;94.0
45383;DHT22;42455;51.660;5.824;2023-12-04T06:58:18;3.4;94.0
45383;DHT22;42455;51.660;5.824;2023-12-04T07:03:24;3.4;94.0
45383;DHT22;42455;51.660;5.824;2023-12-04T07:08:30;3.4;93.5
45383;DHT22;42455;51.660;5.824;2023-12-04T07:13:36;3.4;93.5
45383;DHT22;42455;51.660;5.824;2023-12-04T07:18:43;3.4;93.5
45383;DHT22;42455;51.660;5.824;2023-12-04T07:23:49;3.4;93.5
45383;DHT22;42455;51.660;5.824;2023-12-04T07:28:55;3.4;93.5
45383;DHT22;42455;51.660;5.824;2023-12-04T07:34:01;3.4;93.5
45383;DHT22;42455;51.660;5.824;2023-12-04T07:39:08;3.4;93.5
45383;DHT22;42455;51.660;5.824;2023-12-04T07:44:14;3.4;93.0
45383;DHT22;42455;51.660;5.824;2023-12-04T07:49:20;3.4;93.0
45383;DHT22;42455;51.660;5.824;2023-12-04T07:59:32;3.4;93.0
45383;DHT22;42455;51.660;5.824;2023-12-04T08:04:39;3.4;93.0
45383;DHT22;42455;51.660;5.824;2023-12-04T08:09:45;3.5;93.0
45383;DHT22;42455;51.660;5.824;2023-12-04T08:14:51;3.5;93.0
45383;DHT22;42455;51.660;5.824;2023-12-04T08:19:57;3.5;93.0
45383;DHT22;42455;51.660;5.824;2023-12-04T08:25:03;3.6;93.0
45383;DHT22;42455;51.660;5.824;2023-12-04T08:30:10;3.6;93.0
45383;DHT22;42455;51.660;5.824;2023-12-04T08:35:16;3.7;93.0
45383;DHT22;42455;51.660;5.824;2023-12-04T08:40:22;3.7;93.0
45383;DHT22;42455;51.660;5.824;2023-12-04T08:45:28;3.7;92.5
45383;DHT22;42455;51.660;5.824;2023-12-04T08:50:35;3.8;92.5
45383;DHT22;42455;51.660;5.824;2023-12-04T08:55:41;3.8;92.5
45383;DHT22;42455;51.660;5.824;2023-12-04T09:00:47;3.9;92.5
45383;DHT22;42455;51.660;5.824;2023-12-04T09:05:53;3.9;92.0
45383;DHT22;42455;51.660;5.824;2023-12-04T09:10:59;3.9;92.0
45383;DHT22;42455;51.660;5.824;2023-12-04T09:16:06;4.0;92.0
45383;DHT22;42455;51.660;5.824;2023-12-04T09:21:12;4.0;92.0
45383;DHT22;42455;51.660;5.824;2023-12-04T09:26:18;4.0;92.0
45383;DHT22;42455;51.660;5.824;2023-12-04T09:31:24;4.0;92.0
45383;DHT22;42455;51.660;5.824;2023-12-04T09:36:30;4.1;91.5
45383;DHT22;42455;51.660;5.824;2023-12-04T09:41:38;4.1;91.5
45383;DHT22;42455;51.660;5.824;2023-12-04T09:46:43;4.1;91.5
45383;DHT22;42455;51.660;5.824;2023-12-04T09:51:49;4.1;91.5
45383;DHT22;42455;51.660;5.824;2023-12-04T09:56:56;4.1;91.5
45383;DHT22;42455;51.660;5.824;2023-12-04T10:02:01;4.1;91.5
45383;DHT22;42455;51.660;5.824;2023-12-04T10:07:08;4.2;91.5
45383;DHT22;42455;51.660;5.824;2023-12-04T10:12:18;4.2;91.5
45383;DHT22;42455;51.660;5.824;2023-12-04T10:17:20;4.2;91.5
45383;DHT22;42455;51.660;5.824;2023-12-04T10:22:26;4.2;91.5
45383;DHT22;42455;51.660;5.824;2023-12-04T10:27:32;4.3;91.5
45383;DHT22;42455;51.660;5.824;2023-12-04T10:32:39;4.3;91.5
45383;DHT22;42455;51.660;5.824;2023-12-04T10:37:45;4.3;91.5
45383;DHT22;42455;51.660;5.824;2023-12-04T10:42:52;4.4;91.0
45383;DHT22;42455;51.660;5.824;2023-12-04T10:47:57;4.4;91.5
45383;DHT22;42455;51.660;5.824;2023-12-04T10:53:04;4.4;91.5
45383;DHT22;42455;51.660;5.824;2023-12-04T10:58:14;4.5;91.0
45383;DHT22;42455;51.660;5.824;2023-12-04T11:03:32;4.5;91.0
45383;DHT22;42455;51.660;5.824;2023-12-04T11:08:22;4.5;91.0
45383;DHT22;42455;51.660;5.824;2023-12-04T11:13:35;4.6;91.0
45383;DHT22;42455;51.660;5.824;2023-12-04T11:18:37;4.6;91.0
45383;DHT22;42455;51.660;5.824;2023-12-04T11:23:41;4.6;91.0
45383;DHT22;42455;51.660;5.824;2023-12-04T11:28:47;4.6;91.0
45383;DHT22;42455;51.660;5.824;2023-12-04T11:34:01;4.6;91.0
45383;DHT22;42455;51.660;5.824;2023-12-04T11:39:00;4.6;91.0
45383;DHT22;42455;51.660;5.824;2023-12-04T11:44:11;4.7;91.0
45383;DHT22;42455;51.660;5.824;2023-12-04T11:49:29;4.7;91.0
45383;DHT22;42455;51.660;5.824;2023-12-04T11:54:19;4.8;91.0
45383;DHT22;42455;51.660;5.824;2023-12-04T11:59:24;4.8;91.0
45383;DHT22;42455;51.660;5.824;2023-12-04T12:04:29;4.9;90.5
45383;DHT22;42455;51.660;5.824;2023-12-04T12:09:36;4.9;90.5
45383;DHT22;42455;51.660;5.824;2023-12-04T12:14:42;4.9;90.5
45383;DHT22;42455;51.660;5.824;2023-12-04T12:19:48;4.9;90.5
45383;DHT22;42455;51.660;5.824;2023-12-04T12:24:54;4.9;90.5
45383;DHT22;42455;51.660;5.824;2023-12-04T12:30:00;5.0;90.5
45383;DHT22;42455;51.660;5.824;2023-12-04T12:35:06;5.0;90.5
45383;DHT22;42455;51.660;5.824;2023-12-04T12:40:12;5.0;90.5
45383;DHT22;42455;51.660;5.824;2023-12-04T12:45:18;5.0;90.5
45383;DHT22;42455;51.660;5.824;2023-12-04T12:50:26;5.0;90.5
45383;DHT22;42455;51.660;5.824;2023-12-04T12:55:30;5.0;90.5
45383;DHT22;42455;51.660;5.824;2023-12-04T13:00:39;5.0;90.5
45383;DHT22;42455;51.660;5.824;2023-12-04T13:05:43;5.0;90.5
45383;DHT22;42455;51.660;5.824;2023-12-04T13:10:49;4.9;90.5
45383;DHT22;42455;51.660;5.824;2023-12-04T13:15:55;4.9;90.5
45383;DHT22;42455;51.660;5.824;2023-12-04T13:21:01;4.9;91.0
45383;DHT22;42455;51.660;5.824;2023-12-04T13:26:08;4.9;91.0
45383;DHT22;42455;51.660;5.824;2023-12-04T13:31:14;4.9;91.0
45383;DHT22;42455;51.660;5.824;2023-12-04T13:36:20;4.9;91.0
45383;DHT22;42455;51.660;5.824;2023-12-04T13:41:26;4.9;91.0
45383;DHT22;42455;51.660;5.824;2023-12-04T13:46:33;4.9;91.0
45383;DHT22;42455;51.660;5.824;2023-12-04T13:51:39;4.9;91.5
45383;DHT22;42455;51.660;5.824;2023-12-04T13:56:45;4.9;91.5
45383;DHT22;42455;51.660;5.824;2023-12-04T14:01:51;4.9;91.5
45383;DHT22;42455;51.660;5.824;2023-12-04T14:06:57;4.9;91.5
45383;DHT22;42455;51.660;5.824;2023-12-04T14:12:04;4.8;91.5
45383;DHT22;42455;51.660;5.824;2023-12-04T14:17:10;4.9;91.5
45383;DHT22;42455;51.660;5.824;2023-12-04T14:22:16;4.8;91.5
45383;DHT22;42455;51.660;5.824;2023-12-04T14:27:22;4.8;91.5
45383;DHT22;42455;51.660;5.824;2023-12-04T14:32:28;4.7;92.0
45383;DHT22;42455;51.660;5.824;2023-12-04T14:37:35;4.7;92.0
45383;DHT22;42455;51.660;5.824;2023-12-04T14:42:41;4.7;92.0
45383;DHT22;42455;51.660;5.824;2023-12-04T14:47:47;4.6;92.0
45383;DHT22;42455;51.660;5.824;2023-12-04T14:52:53;4.6;92.0
45383;DHT22;42455;51.660;5.824;2023-12-04T14:57:59;4.5;92.5
45383;DHT22;42455;51.660;5.824;2023-12-04T15:03:06;4.5;92.5
45383;DHT22;42455;51.660;5.824;2023-12-04T15:08:12;4.5;92.5
45383;DHT22;42455;51.660;5.824;2023-12-04T15:13:18;4.4;92.5
45383;DHT22;42455;51.660;5.824;2023-12-04T15:18:24;4.4;92.5
45383;DHT22;42455;51.660;5.824;2023-12-04T15:23:31;4.4;93.0
45383;DHT22;42455;51.660;5.824;2023-12-04T15:28:37;4.3;93.0
45383;DHT22;42455;51.660;5.824;2023-12-04T15:33:43;4.3;93.0
45383;DHT22;42455;51.660;5.824;2023-12-04T15:38:49;4.3;93.0
45383;DHT22;42455;51.660;5.824;2023-12-04T15:43:55;4.3;93.0
45383;DHT22;42455;51.660;5.824;2023-12-04T15:49:01;4.2;93.0
45383;DHT22;42455;51.660;5.824;2023-12-04T15:54:08;4.2;93.5
45383;DHT22;42455;51.660;5.824;2023-12-04T15:59:14;4.2;93.5
45383;DHT22;42455;51.660;5.824;2023-12-04T16:04:20;4.1;93.5
45383;DHT22;42455;51.660;5.824;2023-12-04T16:09:26;4.1;93.5
45383;DHT22;42455;51.660;5.824;2023-12-04T16:14:33;4.1;93.5
45383;DHT22;42455;51.660;5.824;2023-12-04T16:19:39;4.1;94.0
45383;DHT22;42455;51.660;5.824;2023-12-04T16:24:45;4.1;94.0
45383;DHT22;42455;51.660;5.824;2023-12-04T16:29:51;4.1;94.0
45383;DHT22;42455;51.660;5.824;2023-12-04T16:34:57;4.0;94.0
45383;DHT22;42455;51.660;5.824;2023-12-04T16:40:04;4.0;94.0
45383;DHT22;42455;51.660;5.824;2023-12-04T16:45:10;4.0;94.0
45383;DHT22;42455;51.660;5.824;2023-12-04T16:50:16;4.0;94.5
45383;DHT22;42455;51.660;5.824;2023-12-04T16:55:22;4.0;94.5
45383;DHT22;42455;51.660;5.824;2023-12-04T17:00:28;4.0;94.5
45383;DHT22;42455;51.660;5.824;2023-12-04T17:05:35;4.0;94.5
45383;DHT22;42455;51.660;5.824;2023-12-04T17:10:41;4.0;94.5
45383;DHT22;42455;51.660;5.824;2023-12-04T17:15:47;4.0;94.5
45383;DHT22;42455;51.660;5.824;2023-12-04T17:20:53;4.0;94.5
45383;DHT22;42455;51.660;5.824;2023-12-04T17:26:00;4.0;95.0
45383;DHT22;42455;51.660;5.824;2023-12-04T17:31:07;4.0;95.0
45383;DHT22;42455;51.660;5.824;2023-12-04T17:36:12;4.0;95.0
45383;DHT22;42455;51.660;5.824;2023-12-04T17:41:18;4.1;95.0
45383;DHT22;42455;51.660;5.824;2023-12-04T17:46:24;4.0;95.0
45383;DHT22;42455;51.660;5.824;2023-12-04T17:51:30;4.0;95.0
45383;DHT22;42455;51.660;5.824;2023-12-04T17:56:37;4.1;95.0
45383;DHT22;42455;51.660;5.824;2023-12-04T18:01:43;4.1;95.0
45383;DHT22;42455;51.660;5.824;2023-12-04T18:06:48;4.1;95.0
45383;DHT22;42455;51.660;5.824;2023-12-04T18:11:54;4.1;95.5
45383;DHT22;42455;51.660;5.824;2023-12-04T18:17:00;4.1;95.5
45383;DHT22;42455;51.660;5.824;2023-12-04T18:22:07;4.1;95.5
45383;DHT22;42455;51.660;5.824;2023-12-04T18:27:14;4.1;95.5
45383;DHT22;42455;51.660;5.824;2023-12-04T18:37:55;4.1;95.5
45383;DHT22;42455;51.660;5.824;2023-12-04T18:42:32;4.1;95.5
45383;DHT22;42455;51.660;5.824;2023-12-04T18:47:39;4.1;95.5
45383;DHT22;42455;51.660;5.824;2023-12-04T18:52:44;4.1;95.5
45383;DHT22;42455;51.660;5.824;2023-12-04T18:57:50;4.2;96.0
45383;DHT22;42455;51.660;5.824;2023-12-04T19:02:56;4.2;96.0
45383;DHT22;42455;51.660;5.824;2023-12-04T19:08:03;4.2;96.0
45383;DHT22;42455;51.660;5.824;2023-12-04T19:13:09;4.2;96.0
45383;DHT22;42455;51.660;5.824;2023-12-04T19:18:15;4.2;96.0
45383;DHT22;42455;51.660;5.824;2023-12-04T19:23:21;4.2;96.0
45383;DHT22;42455;51.660;5.824;2023-12-04T19:28:27;4.2;96.0
45383;DHT22;42455;51.660;5.824;2023-12-04T19:33:34;4.3;96.0
45383;DHT22;42455;51.660;5.824;2023-12-04T19:38:40;4.3;96.5
45383;DHT22;42455;51.660;5.824;2023-12-04T19:43:46;4.3;96.5
45383;DHT22;42455;51.660;5.824;2023-12-04T19:48:52;4.3;96.5
45383;DHT22;42455;51.660;5.824;2023-12-04T19:53:58;4.3;96.5
45383;DHT22;42455;51.660;5.824;2023-12-04T19:59:05;4.3;96.5
45383;DHT22;42455;51.660;5.824;2023-12-04T20:04:11;4.3;96.5
45383;DHT22;42455;51.660;5.824;2023-12-04T20:09:17;4.4;96.5
45383;DHT22;42455;51.660;5.824;2023-12-04T20:14:23;4.4;96.5
45383;DHT22;42455;51.660;5.824;2023-12-04T20:19:30;4.4;96.5
45383;DHT22;42455;51.660;5.824;2023-12-04T20:24:36;4.4;96.5
45383;DHT22;42455;51.660;5.824;2023-12-04T20:29:42;4.4;97.0
45383;DHT22;42455;51.660;5.824;2023-12-04T20:34:48;4.5;97.0
45383;DHT22;42455;51.660;5.824;2023-12-04T20:39:55;4.5;97.0
45383;DHT22;42455;51.660;5.824;2023-12-04T20:45:00;4.5;97.0
45383;DHT22;42455;51.660;5.824;2023-12-04T20:50:07;4.5;97.0
45383;DHT22;42455;51.660;5.824;2023-12-04T20:55:13;4.5;97.0
45383;DHT22;42455;51.660;5.824;2023-12-04T21:00:19;4.6;97.0
45383;DHT22;42455;51.660;5.824;2023-12-04T21:05:25;4.6;97.0
45383;DHT22;42455;51.660;5.824;2023-12-04T21:10:32;4.6;97.0
45383;DHT22;42455;51.660;5.824;2023-12-04T21:15:38;4.6;97.0
45383;DHT22;42455;51.660;5.824;2023-12-04T21:20:44;4.6;97.0
45383;DHT22;42455;51.660;5.824;2023-12-04T21:25:50;4.6;97.5
45383;DHT22;42455;51.660;5.824;2023-12-04T21:30:56;4.7;97.5
45383;DHT22;42455;51.660;5.824;2023-12-04T21:36:03;4.7;97.5
45383;DHT22;42455;51.660;5.824;2023-12-04T21:41:09;4.7;97.5
45383;DHT22;42455;51.660;5.824;2023-12-04T21:46:15;4.7;97.5
45383;DHT22;42455;51.660;5.824;2023-12-04T21:51:21;4.8;97.5
45383;DHT22;42455;51.660;5.824;2023-12-04T21:56:28;4.8;97.5
45383;DHT22;42455;51.660;5.824;2023-12-04T22:01:34;4.8;97.5
45383;DHT22;42455;51.660;5.824;2023-12-04T22:06:40;4.9;97.5
45383;DHT22;42455;51.660;5.824;2023-12-04T22:11:46;4.9;97.5
45383;DHT22;42455;51.660;5.824;2023-12-04T22:16:52;4.9;97.5
45383;DHT22;42455;51.660;5.824;2023-12-04T22:21:58;4.9;97.5
45383;DHT22;42455;51.660;5.824;2023-12-04T22:27:05;5.0;97.5
45383;DHT22;42455;51.660;5.824;2023-12-04T22:32:11;5.0;97.5
45383;DHT22;42455;51.660;5.824;2023-12-04T22:37:17;5.0;97.5
45383;DHT22;42455;51.660;5.824;2023-12-04T22:42:23;5.0;98.0
45383;DHT22;42455;51.660;5.824;2023-12-04T22:47:30;5.1;98.0
45383;DHT22;42455;51.660;5.824;2023-12-04T22:52:36;5.1;98.0
45383;DHT22;42455;51.660;5.824;2023-12-04T22:57:42;5.1;98.0
45383;DHT22;42455;51.660;5.824;2023-12-04T23:02:48;5.1;98.0
45383;DHT22;42455;51.660;5.824;2023-12-04T23:07:54;5.2;98.0
45383;DHT22;42455;51.660;5.824;2023-12-04T23:13:01;5.2;98.0
45383;DHT22;42455;51.660;5.824;2023-12-04T23:18:07;5.2;98.0
45383;DHT22;42455;51.660;5.824;2023-12-04T23:23:14;5.2;98.0
45383;DHT22;42455;51.660;5.824;2023-12-04T23:28:19;5.3;98.0
45383;DHT22;42455;51.660;5.824;2023-12-04T23:33:25;5.3;98.0
45383;DHT22;42455;51.660;5.824;2023-12-04T23:38:31;5.3;98.0
45383;DHT22;42455;51.660;5.824;2023-12-04T23:43:37;5.3;98.0
45383;DHT22;42455;51.660;5.824;2023-12-04T23:48:43;5.4;98.0
45383;DHT22;42455;51.660;5.824;2023-12-04T23:53:49;5.4;98.5
45383;DHT22;42455;51.660;5.824;2023-12-04T23:58:55;5.4;98.5
